createdAt,value
2023-01-19T06:48:40.258Z,4.75
2023-01-19T06:51:25.803Z,2.08
2023-01-19T06:54:11.630Z,2.37
2023-01-19T06:56:57.981Z,2.03
2023-01-19T06:59:43.310Z,2.08
2023-01-19T07:02:29.581Z,1.17
2023-01-19T07:05:15.074Z,1.50
2023-01-19T07:08:02.020Z,2.22
2023-01-19T07:11:22.212Z,2.78
2023-01-19T07:14:01.817Z,1.17
2023-01-19T07:16:54.321Z,3.08
2023-01-19T07:19:40.443Z,1.50
2023-01-19T07:22:25.907Z,2.62
2023-01-19T07:25:11.696Z,2.12
2023-01-19T07:28:01.730Z,2.30
2023-01-19T07:30:51.409Z,1.65
2023-01-19T07:33:37.061Z,1.52
2023-01-19T07:36:24.765Z,1.23
2023-01-19T07:39:10.135Z,2.72
2023-01-19T07:41:55.922Z,1.60
2023-01-19T07:44:41.550Z,1.83
2023-01-19T07:47:28.075Z,1.27
2023-01-19T07:50:13.969Z,1.20
2023-01-19T07:53:06.069Z,2.40
2023-01-19T07:55:58.203Z,2.10
2023-01-19T07:58:43.764Z,1.25
2023-01-19T08:01:29.920Z,1.92
2023-01-19T08:04:17.965Z,1.45
2023-01-19T08:07:04.331Z,3.10
2023-01-19T08:09:49.681Z,1.60
2023-01-19T08:12:35.206Z,2.45
2023-01-19T08:15:23.056Z,1.90
2023-01-19T08:18:11.580Z,2.40
2023-01-19T08:20:59.796Z,1.90
2023-01-19T08:23:45.785Z,2.20
2023-01-19T08:26:33.059Z,3.30
2023-01-19T08:29:18.634Z,2.30
2023-01-19T08:32:04.999Z,5.03
2023-01-19T08:34:50.615Z,3.30
2023-01-19T08:37:35.974Z,4.60
2023-01-19T08:40:21.251Z,5.47
2023-01-19T08:43:12.936Z,5.03
2023-01-19T08:45:58.826Z,4.95
2023-01-19T08:48:56.015Z,6.22
2023-01-19T08:51:42.308Z,6.47
2023-01-19T08:54:27.737Z,6.37
2023-01-19T08:57:12.962Z,5.57
2023-01-19T09:00:00.405Z,4.97
2023-01-19T09:02:46.045Z,9.15
2023-01-19T09:05:37.296Z,6.32
2023-01-19T09:08:22.589Z,5.40
2023-01-19T09:11:12.134Z,6.28
2023-01-19T09:13:58.114Z,4.30
2023-01-19T09:16:43.546Z,8.38
2023-01-19T09:19:28.978Z,8.70
2023-01-19T09:22:18.330Z,5.50
2023-01-19T09:25:03.971Z,5.32
2023-01-19T09:27:50.774Z,6.55
2023-01-19T09:30:37.646Z,9.23
2023-01-19T09:33:24.646Z,6.80
2023-01-19T09:36:11.350Z,6.65
2023-01-19T09:38:58.194Z,10.68
2023-01-19T09:41:47.514Z,13.25
2023-01-19T09:44:34.703Z,6.25
2023-01-19T09:47:25.457Z,8.13
2023-01-19T09:50:22.972Z,8.48
2023-01-19T09:53:21.532Z,2.78
2023-01-19T09:56:12.290Z,8.70
2023-01-19T09:58:58.349Z,13.23
2023-01-19T10:01:51.976Z,6.45
2023-01-19T10:04:40.344Z,7.25
2023-01-19T10:07:34.265Z,5.22
2023-01-19T10:10:23.554Z,5.82
2023-01-19T10:13:30.808Z,6.00
2023-01-19T10:16:31.610Z,8.35
2023-01-19T10:19:52.452Z,3.55
2023-01-19T10:22:38.866Z,6.65
2023-01-19T10:25:24.533Z,4.95
2023-01-19T10:28:11.455Z,4.03
2023-01-19T10:30:56.652Z,7.90
2023-01-19T10:33:42.687Z,3.67
2023-01-19T10:36:39.754Z,4.95
2023-01-19T10:39:27.232Z,5.85
2023-01-19T10:42:16.106Z,5.87
2023-01-19T10:45:01.265Z,8.23
2023-01-19T10:47:48.181Z,8.60
2023-01-19T10:50:40.782Z,5.82
2023-01-19T10:53:26.903Z,5.05
2023-01-19T10:56:24.416Z,7.05
2023-01-19T10:59:40.078Z,11.93
2023-01-19T11:02:31.702Z,12.20
2023-01-19T11:05:26.859Z,6.87
2023-01-19T11:08:30.924Z,9.52
2023-01-19T11:11:16.036Z,11.90
2023-01-19T11:14:14.286Z,10.60
2023-01-19T11:16:59.627Z,10.45
2023-01-19T11:19:53.605Z,10.75
2023-01-19T11:22:39.461Z,8.55
2023-01-19T11:25:31.115Z,12.85
2023-01-19T11:28:35.544Z,15.27
2023-01-19T11:31:32.198Z,12.82
2023-01-19T11:34:26.887Z,10.93
2023-01-19T11:37:18.340Z,14.07
2023-01-19T11:40:06.051Z,9.18
2023-01-19T11:42:52.050Z,11.25
2023-01-19T11:45:43.665Z,16.73
2023-01-19T11:48:37.492Z,10.25
2023-01-19T11:51:23.670Z,8.32
2023-01-19T11:54:23.678Z,8.18
2023-01-19T11:57:17.275Z,11.95
2023-01-19T12:00:05.265Z,8.95
2023-01-19T12:02:54.596Z,7.90
2023-01-19T12:05:46.666Z,8.88
2023-01-19T12:08:37.850Z,8.95
2023-01-19T12:11:31.654Z,8.75
2023-01-19T12:14:41.130Z,7.15
2023-01-19T12:17:29.622Z,10.82
2023-01-19T12:20:21.148Z,11.00
2023-01-19T12:23:25.312Z,11.70
2023-01-19T12:26:16.802Z,14.43
2023-01-19T12:29:13.310Z,16.25
2023-01-19T12:32:14.043Z,10.88
2023-01-19T12:35:00.286Z,13.25
2023-01-19T12:37:45.734Z,12.77
2023-01-19T12:40:35.209Z,27.92
2023-01-19T12:43:21.006Z,13.02
